createdAt,value
2022-07-31T00:00:17.348Z,20.25
2022-07-31T00:02:44.680Z,20.21
2022-07-31T00:05:11.430Z,20.18
2022-07-31T00:07:38.042Z,20.15
2022-07-31T00:10:06.889Z,20.12
2022-07-31T00:12:34.892Z,20.09
2022-07-31T00:15:03.466Z,20.09
2022-07-31T00:17:29.903Z,20.05
2022-07-31T00:19:56.557Z,20.03
2022-07-31T00:22:23.250Z,20.00
2022-07-31T00:24:49.778Z,20.00
2022-07-31T00:27:16.292Z,19.97
2022-07-31T00:29:42.773Z,19.89
2022-07-31T00:32:09.291Z,19.84
2022-07-31T00:34:35.734Z,19.85
2022-07-31T00:37:02.616Z,19.87
2022-07-31T00:39:30.957Z,19.86
2022-07-31T00:41:57.410Z,19.87
2022-07-31T00:44:23.888Z,19.87
2022-07-31T00:46:51.528Z,19.89
2022-07-31T00:49:19.016Z,19.88
2022-07-31T00:51:45.598Z,19.88
2022-07-31T00:54:16.939Z,19.86
2022-07-31T00:56:49.880Z,19.83
2022-07-31T00:59:16.782Z,19.82
2022-07-31T01:01:50.942Z,19.84
2022-07-31T01:04:18.979Z,19.84
2022-07-31T01:06:47.019Z,19.81
2022-07-31T01:09:14.654Z,19.81
2022-07-31T01:11:47.537Z,19.80
2022-07-31T01:14:14.692Z,19.81
2022-07-31T01:16:46.497Z,19.81
2022-07-31T01:19:39.646Z,19.78
2022-07-31T01:22:33.154Z,19.79
2022-07-31T01:25:07.796Z,19.78
2022-07-31T01:28:02.922Z,19.76
2022-07-31T01:30:37.758Z,19.74
2022-07-31T01:33:11.695Z,19.70
2022-07-31T01:35:43.474Z,19.69
2022-07-31T01:38:20.821Z,19.68
2022-07-31T01:40:54.597Z,19.66
2022-07-31T01:43:25.827Z,19.64
2022-07-31T01:45:55.489Z,19.62
2022-07-31T01:48:22.974Z,19.61
2022-07-31T01:50:53.835Z,19.59
2022-07-31T01:53:22.670Z,19.58
2022-07-31T01:56:02.874Z,19.56
2022-07-31T01:58:35.321Z,19.54
2022-07-31T02:01:03.706Z,19.50
2022-07-31T02:03:43.506Z,19.47
2022-07-31T02:06:14.807Z,19.44
2022-07-31T02:08:44.143Z,19.43
2022-07-31T02:11:12.051Z,19.42
2022-07-31T02:13:38.650Z,19.41
2022-07-31T02:16:06.448Z,19.42
2022-07-31T02:18:34.779Z,19.39
2022-07-31T02:21:01.455Z,19.39
2022-07-31T02:23:27.988Z,19.39
2022-07-31T02:25:54.876Z,19.37
2022-07-31T02:28:23.019Z,19.38
2022-07-31T02:30:51.699Z,19.36
2022-07-31T02:33:21.635Z,19.36
2022-07-31T02:35:50.289Z,19.37
2022-07-31T02:38:23.132Z,19.36
2022-07-31T02:40:53.245Z,19.34
2022-07-31T02:43:21.914Z,19.34
2022-07-31T02:45:48.767Z,19.33
2022-07-31T02:48:16.001Z,19.32
2022-07-31T02:50:43.049Z,19.30
2022-07-31T02:53:09.739Z,19.29
2022-07-31T02:55:36.915Z,19.29
2022-07-31T02:58:04.451Z,19.29
2022-07-31T03:00:31.210Z,19.25
2022-07-31T03:02:58.238Z,19.24
2022-07-31T03:05:24.999Z,19.22
2022-07-31T03:07:51.800Z,19.21
2022-07-31T03:10:18.546Z,19.20
2022-07-31T03:12:49.052Z,19.20
2022-07-31T03:15:18.184Z,19.18
2022-07-31T03:17:46.584Z,19.17
2022-07-31T03:20:14.286Z,19.18
2022-07-31T03:22:41.734Z,19.18
2022-07-31T03:25:09.668Z,19.14
2022-07-31T03:27:36.317Z,19.15
2022-07-31T03:30:04.891Z,19.16
2022-07-31T03:32:31.364Z,19.16
2022-07-31T03:34:57.840Z,19.14
2022-07-31T03:37:24.282Z,19.12
2022-07-31T03:39:50.747Z,19.11
2022-07-31T03:42:18.875Z,19.08
2022-07-31T03:44:48.249Z,19.08
2022-07-31T03:47:16.493Z,19.07
2022-07-31T03:49:43.730Z,19.08
2022-07-31T03:52:12.447Z,19.09
2022-07-31T03:54:39.870Z,19.07
2022-07-31T03:57:08.553Z,19.08
2022-07-31T03:59:38.545Z,19.08
2022-07-31T04:02:12.057Z,19.10
2022-07-31T04:04:39.529Z,19.09
2022-07-31T04:07:06.081Z,19.05
2022-07-31T04:09:33.009Z,19.05
2022-07-31T04:11:59.528Z,19.04
2022-07-31T04:14:27.107Z,19.05
2022-07-31T04:16:53.564Z,19.06
2022-07-31T04:19:20.061Z,19.04
2022-07-31T04:21:46.649Z,19.03
2022-07-31T04:24:16.846Z,19.05
2022-07-31T04:26:43.782Z,19.04
2022-07-31T04:29:10.574Z,19.06
2022-07-31T04:31:37.112Z,19.07
2022-07-31T04:34:03.561Z,19.08
2022-07-31T04:36:31.001Z,19.10
2022-07-31T04:38:58.851Z,19.11
2022-07-31T04:41:25.454Z,19.12
2022-07-31T04:43:51.899Z,19.12
2022-07-31T04:46:18.389Z,19.12
2022-07-31T04:48:45.162Z,19.12
2022-07-31T04:51:20.199Z,19.13
2022-07-31T04:53:46.827Z,19.12
2022-07-31T04:56:32.482Z,19.14
2022-07-31T04:59:00.584Z,19.17
2022-07-31T05:01:27.511Z,19.19
2022-07-31T05:03:54.001Z,19.22
2022-07-31T05:06:20.496Z,19.25
2022-07-31T05:08:46.999Z,19.28
2022-07-31T05:11:22.470Z,19.32
2022-07-31T05:13:53.553Z,19.37
2022-07-31T05:16:20.616Z,19.42
2022-07-31T05:18:47.801Z,19.46
2022-07-31T05:21:16.826Z,19.45
2022-07-31T05:23:45.018Z,19.47
2022-07-31T05:26:12.796Z,19.50
2022-07-31T05:28:40.343Z,19.53
2022-07-31T05:31:07.835Z,19.53
2022-07-31T05:33:35.271Z,19.55
2022-07-31T05:36:02.640Z,19.57
2022-07-31T05:38:29.392Z,19.58
2022-07-31T05:40:56.328Z,19.59
2022-07-31T05:43:22.807Z,19.59
2022-07-31T05:45:49.362Z,19.59
2022-07-31T05:48:17.085Z,19.60
2022-07-31T05:50:45.169Z,19.63
2022-07-31T05:53:14.894Z,19.65
2022-07-31T05:55:43.660Z,19.68
2022-07-31T05:58:16.315Z,19.65
2022-07-31T06:00:45.157Z,19.64
2022-07-31T06:03:12.816Z,19.66
2022-07-31T06:05:41.185Z,19.68
2022-07-31T06:08:09.578Z,19.70
2022-07-31T06:10:38.560Z,19.73
2022-07-31T06:15:36.488Z,19.74
2022-07-31T06:18:04.147Z,19.75
2022-07-31T06:20:31.252Z,19.79
2022-07-31T06:22:57.849Z,19.81
2022-07-31T06:25:25.319Z,19.86
2022-07-31T06:27:59.839Z,19.91
2022-07-31T06:30:27.907Z,19.95
2022-07-31T06:32:54.639Z,19.98
2022-07-31T06:35:21.382Z,19.94
2022-07-31T06:37:47.951Z,19.94
2022-07-31T06:40:14.681Z,19.98
2022-07-31T06:42:41.574Z,19.99
2022-07-31T06:45:09.876Z,19.99
2022-07-31T06:50:16.882Z,19.92
2022-07-31T06:52:43.375Z,19.95
2022-07-31T06:55:10.163Z,19.88
2022-07-31T06:57:38.002Z,19.86
2022-07-31T07:00:19.969Z,19.87
2022-07-31T07:02:47.174Z,19.91
2022-07-31T07:05:14.406Z,19.95
2022-07-31T07:10:36.553Z,19.99
2022-07-31T08:13:41.337Z,20.80
2022-07-31T08:32:02.402Z,20.82
2022-07-31T08:47:44.625Z,20.74
2022-07-31T09:12:12.616Z,20.86
2022-07-31T09:14:39.910Z,20.91
2022-07-31T09:23:11.938Z,20.98
2022-07-31T09:25:54.973Z,21.04
2022-07-31T09:28:52.112Z,21.07
2022-07-31T09:31:20.519Z,21.09
2022-07-31T09:33:47.166Z,21.05
2022-07-31T09:36:18.715Z,20.98
2022-07-31T09:38:45.890Z,20.96
2022-07-31T09:41:55.579Z,20.95
2022-07-31T09:44:10.189Z,21.01
2022-07-31T09:46:40.429Z,21.01
2022-07-31T09:49:10.119Z,21.03
2022-07-31T09:51:48.375Z,21.08
2022-07-31T09:54:23.499Z,21.06
2022-07-31T09:56:50.479Z,21.01
2022-07-31T09:59:42.387Z,20.98
2022-07-31T10:05:37.996Z,21.13
2022-07-31T10:11:36.993Z,21.21
2022-07-31T10:17:16.980Z,21.33
2022-07-31T10:19:47.584Z,21.33
2022-07-31T10:22:18.391Z,21.39
2022-07-31T10:25:03.970Z,21.46
2022-07-31T10:27:35.879Z,21.42
2022-07-31T10:33:44.738Z,21.42
2022-07-31T10:36:27.917Z,21.40
2022-07-31T10:39:20.928Z,21.38
2022-07-31T10:42:08.291Z,21.31
2022-07-31T10:45:58.358Z,21.35
2022-07-31T10:50:52.216Z,21.31
2022-07-31T10:53:19.713Z,21.28
2022-07-31T10:56:10.716Z,21.33
2022-07-31T10:58:51.775Z,21.33
2022-07-31T11:02:13.185Z,21.30
2022-07-31T11:04:45.590Z,21.23
2022-07-31T11:07:38.945Z,21.22
2022-07-31T11:10:13.727Z,21.25
2022-07-31T11:12:40.896Z,21.27
2022-07-31T11:15:25.749Z,21.29
2022-07-31T11:18:23.519Z,21.28
2022-07-31T11:20:40.685Z,21.29
2022-07-31T11:23:08.604Z,21.26
2022-07-31T11:25:38.049Z,21.21
2022-07-31T11:28:21.478Z,21.21
2022-07-31T11:30:50.060Z,21.21
2022-07-31T11:33:28.090Z,21.25
2022-07-31T11:35:57.765Z,21.30
2022-07-31T11:38:29.124Z,21.32
2022-07-31T11:40:56.083Z,21.31
2022-07-31T11:43:26.042Z,21.29
2022-07-31T11:45:55.127Z,21.34
2022-07-31T11:48:27.806Z,21.34
2022-07-31T11:50:54.791Z,21.35
2022-07-31T11:53:22.569Z,21.32
2022-07-31T11:55:58.141Z,21.36
2022-07-31T11:58:27.263Z,21.38
2022-07-31T12:00:59.100Z,21.33
2022-07-31T12:03:33.996Z,21.35
2022-07-31T12:06:00.775Z,21.33
2022-07-31T12:08:29.526Z,21.39
2022-07-31T12:10:58.376Z,21.46
2022-07-31T12:13:26.011Z,21.52
2022-07-31T12:15:57.561Z,21.51
2022-07-31T12:18:26.298Z,21.53
2022-07-31T12:20:55.509Z,21.53
2022-07-31T12:23:40.552Z,21.56
2022-07-31T12:26:10.693Z,21.62
2022-07-31T12:28:43.967Z,21.66
2022-07-31T12:31:10.583Z,21.67
2022-07-31T12:33:43.155Z,21.68
2022-07-31T12:36:16.385Z,21.65
2022-07-31T12:38:47.903Z,21.62
2022-07-31T12:41:15.697Z,21.61
2022-07-31T12:43:50.781Z,21.56
2022-07-31T12:46:19.917Z,21.59
2022-07-31T12:48:46.487Z,21.62
2022-07-31T12:51:13.427Z,21.70
2022-07-31T12:53:40.129Z,21.75
2022-07-31T12:56:11.773Z,21.80
2022-07-31T12:58:39.902Z,21.77
2022-07-31T13:01:56.008Z,21.71
2022-07-31T13:03:59.469Z,21.68
2022-07-31T13:06:28.639Z,21.67
2022-07-31T13:08:57.738Z,21.70
2022-07-31T13:11:26.139Z,21.75
2022-07-31T13:13:52.846Z,21.80
2022-07-31T13:16:19.492Z,21.79
2022-07-31T13:18:46.024Z,21.82
2022-07-31T13:21:13.065Z,21.84
2022-07-31T13:23:39.633Z,21.85
2022-07-31T13:26:08.315Z,21.85
2022-07-31T13:28:37.854Z,21.86
2022-07-31T13:31:04.424Z,21.87
2022-07-31T13:33:30.959Z,21.88
2022-07-31T13:36:00.702Z,21.89
2022-07-31T13:38:27.324Z,21.89
2022-07-31T13:41:12.485Z,21.91
2022-07-31T13:44:00.247Z,21.90
2022-07-31T13:47:07.349Z,21.89
2022-07-31T13:49:34.260Z,21.85
2022-07-31T13:52:06.198Z,21.82
2022-07-31T13:54:39.198Z,21.81
2022-07-31T14:00:04.477Z,21.83
2022-07-31T14:02:33.971Z,21.90
2022-07-31T14:05:01.004Z,21.98
2022-07-31T14:07:47.927Z,22.09
2022-07-31T14:10:19.875Z,22.08
2022-07-31T14:12:53.621Z,22.06
2022-07-31T14:15:50.577Z,22.02
2022-07-31T14:18:20.289Z,21.96
2022-07-31T14:20:46.997Z,21.90
2022-07-31T14:23:13.855Z,21.85
2022-07-31T14:25:41.663Z,21.81
2022-07-31T14:28:09.666Z,21.75
2022-07-31T14:30:37.277Z,21.72
2022-07-31T14:33:08.717Z,21.72
2022-07-31T14:35:43.014Z,21.72
2022-07-31T14:38:27.389Z,21.68
2022-07-31T14:40:54.639Z,21.66
2022-07-31T14:43:22.407Z,21.61
2022-07-31T14:48:30.219Z,21.59
2022-07-31T14:53:48.173Z,21.63
2022-07-31T14:56:58.462Z,21.67
2022-07-31T14:59:17.502Z,21.64
2022-07-31T15:01:44.238Z,21.61
2022-07-31T15:04:13.541Z,21.64
2022-07-31T15:06:56.279Z,21.62
2022-07-31T15:09:28.109Z,21.63
2022-07-31T15:12:00.707Z,21.64
2022-07-31T15:14:29.663Z,21.61
2022-07-31T15:17:23.958Z,21.64
2022-07-31T15:20:51.995Z,21.67
2022-07-31T15:23:51.454Z,21.70
2022-07-31T15:30:18.353Z,21.61
2022-07-31T15:32:45.065Z,21.47
2022-07-31T15:35:13.753Z,21.42
2022-07-31T15:37:43.989Z,21.38
2022-07-31T15:40:12.944Z,21.34
2022-07-31T15:42:41.961Z,21.30
2022-07-31T15:45:13.172Z,21.27
2022-07-31T15:47:40.491Z,21.29
2022-07-31T15:50:08.579Z,21.26
2022-07-31T15:52:35.377Z,21.19
2022-07-31T15:55:02.555Z,21.23
2022-07-31T15:57:29.187Z,21.22
2022-07-31T16:00:01.500Z,21.22
2022-07-31T16:02:30.134Z,21.28
2022-07-31T16:05:11.251Z,21.32
2022-07-31T16:08:28.474Z,21.32
2022-07-31T16:10:25.351Z,21.36
2022-07-31T16:12:51.905Z,21.36
2022-07-31T16:15:18.469Z,21.35
2022-07-31T16:17:47.186Z,21.36
2022-07-31T16:20:26.379Z,21.27
2022-07-31T16:22:56.445Z,21.27
2022-07-31T16:25:24.308Z,21.25
2022-07-31T16:27:51.554Z,21.22
2022-07-31T16:30:18.693Z,21.27
2022-07-31T16:32:45.267Z,21.30
2022-07-31T16:35:12.585Z,21.30
2022-07-31T16:37:50.449Z,21.29
2022-07-31T16:40:28.364Z,21.31
2022-07-31T16:42:56.354Z,21.36
2022-07-31T16:45:23.246Z,21.38
2022-07-31T16:47:51.740Z,21.33
2022-07-31T16:50:19.047Z,21.37
2022-07-31T16:52:45.519Z,21.42
2022-07-31T16:55:11.926Z,21.42
2022-07-31T16:57:39.449Z,21.39
2022-07-31T17:00:06.898Z,21.35
2022-07-31T17:02:33.378Z,21.29
2022-07-31T17:04:59.992Z,21.34
2022-07-31T17:07:28.348Z,21.26
2022-07-31T17:09:54.826Z,21.26
2022-07-31T17:12:21.419Z,21.25
2022-07-31T17:14:48.634Z,21.28
2022-07-31T17:17:15.646Z,21.30
2022-07-31T17:19:45.774Z,21.27
2022-07-31T17:22:17.878Z,21.33
2022-07-31T17:24:52.347Z,21.34
2022-07-31T17:27:20.539Z,21.30
2022-07-31T17:29:49.536Z,21.33
2022-07-31T17:32:17.462Z,21.35
2022-07-31T17:34:45.820Z,21.33
2022-07-31T17:37:13.186Z,21.31
2022-07-31T17:39:41.932Z,21.25
2022-07-31T17:42:09.261Z,21.24
2022-07-31T17:44:36.553Z,21.24
2022-07-31T17:47:07.174Z,21.19
2022-07-31T17:49:34.820Z,21.14
2022-07-31T17:52:01.459Z,21.14
2022-07-31T18:02:29.001Z,21.12
2022-07-31T18:03:34.954Z,21.17
2022-07-31T18:05:15.968Z,21.10
2022-07-31T18:07:42.783Z,21.08
2022-07-31T18:10:52.275Z,21.11
2022-07-31T18:16:10.178Z,21.11
2022-07-31T18:40:12.349Z,20.95
2022-07-31T18:43:20.780Z,20.96
2022-07-31T18:51:00.028Z,20.90
2022-07-31T18:53:30.807Z,20.78
2022-07-31T18:55:57.310Z,20.63
2022-07-31T18:58:23.906Z,20.56
2022-07-31T19:00:54.963Z,20.48
2022-07-31T19:03:23.647Z,20.45
2022-07-31T19:05:52.847Z,20.43
2022-07-31T19:08:20.781Z,20.41
2022-07-31T19:10:49.487Z,20.38
2022-07-31T19:13:18.963Z,20.36
2022-07-31T19:15:47.405Z,20.36
2022-07-31T19:18:15.163Z,20.32
2022-07-31T19:20:58.892Z,20.35
2022-07-31T19:23:32.012Z,20.37
2022-07-31T19:26:04.068Z,20.36
2022-07-31T19:28:33.343Z,20.35
2022-07-31T19:31:00.351Z,20.36
2022-07-31T19:33:27.060Z,20.37
2022-07-31T19:35:58.910Z,20.36
2022-07-31T19:38:28.354Z,20.35
2022-07-31T19:40:55.224Z,20.38
2022-07-31T19:43:22.162Z,20.35
2022-07-31T19:46:10.780Z,20.32
2022-07-31T19:48:36.567Z,20.34
2022-07-31T19:51:03.952Z,20.30
2022-07-31T19:53:30.581Z,20.28
2022-07-31T19:55:57.263Z,20.27
2022-07-31T19:58:23.878Z,20.29
2022-07-31T20:00:50.534Z,20.26
2022-07-31T20:03:17.285Z,20.23
2022-07-31T20:05:43.977Z,20.22
2022-07-31T20:08:10.606Z,20.23
2022-07-31T20:10:37.385Z,20.24
2022-07-31T20:13:04.318Z,20.26
2022-07-31T20:15:52.053Z,20.26
2022-07-31T20:18:27.504Z,20.26
2022-07-31T20:21:07.059Z,20.23
2022-07-31T20:23:36.660Z,20.22
2022-07-31T20:26:03.543Z,20.25
2022-07-31T20:28:30.799Z,20.23
2022-07-31T20:30:58.023Z,20.20
2022-07-31T20:33:24.582Z,20.15
2022-07-31T20:35:51.283Z,20.15
2022-07-31T20:38:19.233Z,20.14
2022-07-31T20:40:53.601Z,20.13
2022-07-31T20:43:23.404Z,20.11
2022-07-31T20:45:50.768Z,20.14
2022-07-31T20:48:18.430Z,20.14
2022-07-31T20:50:48.058Z,20.14
2022-07-31T20:53:17.291Z,20.13
2022-07-31T20:55:47.439Z,20.14
2022-07-31T20:58:14.445Z,20.11
2022-07-31T21:00:41.573Z,20.10
2022-07-31T21:03:08.061Z,20.09
2022-07-31T21:05:37.766Z,20.08
2022-07-31T21:08:05.623Z,20.08
2022-07-31T21:10:32.275Z,20.08
2022-07-31T21:12:59.852Z,20.08
2022-07-31T21:15:41.191Z,20.06
2022-07-31T21:18:14.946Z,20.04
2022-07-31T21:20:51.709Z,20.05
2022-07-31T21:23:22.893Z,20.05
2022-07-31T21:25:51.378Z,20.02
2022-07-31T21:28:18.418Z,19.99
2022-07-31T21:30:46.243Z,19.97
2022-07-31T21:33:12.960Z,19.98
2022-07-31T21:35:40.573Z,19.97
2022-07-31T21:38:11.721Z,19.99
2022-07-31T21:40:39.845Z,20.02
2022-07-31T21:43:06.757Z,20.00
2022-07-31T21:45:50.550Z,19.99
2022-07-31T21:48:22.285Z,19.96
2022-07-31T21:50:49.014Z,19.96
2022-07-31T21:53:15.489Z,19.97
2022-07-31T21:55:42.097Z,19.96
2022-07-31T21:58:09.192Z,19.92
2022-07-31T22:00:36.027Z,19.89
2022-07-31T22:03:03.778Z,19.86
2022-07-31T22:05:49.451Z,19.87
2022-07-31T22:08:16.475Z,19.86
2022-07-31T22:10:43.057Z,19.85
2022-07-31T22:13:09.622Z,19.82
2022-07-31T22:15:55.608Z,19.80
2022-07-31T22:18:22.886Z,19.79
2022-07-31T22:20:52.943Z,19.78
2022-07-31T22:23:19.624Z,19.76
2022-07-31T22:25:46.925Z,19.75
2022-07-31T22:28:13.622Z,19.72
2022-07-31T22:30:40.276Z,19.72
2022-07-31T22:33:07.180Z,19.73
2022-07-31T22:35:33.729Z,19.70
2022-07-31T22:38:00.450Z,19.66
2022-07-31T22:40:27.089Z,19.66
2022-07-31T22:42:56.207Z,19.67
2022-07-31T22:45:24.281Z,19.67
2022-07-31T22:47:51.015Z,19.65
2022-07-31T22:50:17.744Z,19.67
2022-07-31T22:52:44.286Z,19.68
2022-07-31T22:55:15.625Z,19.65
2022-07-31T22:57:44.063Z,19.64
2022-07-31T23:00:13.249Z,19.65
2022-07-31T23:02:40.725Z,19.65
2022-07-31T23:05:08.526Z,19.61
2022-07-31T23:07:34.987Z,19.63
2022-07-31T23:10:01.516Z,19.66
2022-07-31T23:12:29.283Z,19.66
2022-07-31T23:14:55.996Z,19.64
2022-07-31T23:17:23.567Z,19.65
2022-07-31T23:19:54.091Z,19.63
2022-07-31T23:22:33.098Z,19.63
2022-07-31T23:25:03.657Z,19.60
2022-07-31T23:27:30.315Z,19.61
2022-07-31T23:29:58.586Z,19.58
2022-07-31T23:32:25.555Z,19.59
2022-07-31T23:34:53.253Z,19.62
2022-07-31T23:37:20.035Z,19.63
2022-07-31T23:39:46.479Z,19.61
2022-07-31T23:42:31.694Z,19.61
2022-07-31T23:44:58.215Z,19.59
2022-07-31T23:47:24.901Z,19.59
2022-07-31T23:50:11.102Z,19.61
2022-07-31T23:52:37.575Z,19.62
2022-07-31T23:55:04.163Z,19.60
2022-07-31T23:57:34.471Z,19.60
